sensor_id;sensor_type;location;lat;lon;timestamp;pressure;altitude;pressure_sealevel;temperature;humidity
45763;BME280;37512;52.408;13.356;2023-04-09T00:03:57;102182.53;;;3.80;100.00
45763;BME280;37512;52.408;13.356;2023-04-09T00:07:59;102187.94;;;3.35;100.00
45763;BME280;37512;52.408;13.356;2023-04-09T00:12:01;102189.81;;;3.50;100.00
45763;BME280;37512;52.408;13.356;2023-04-09T00:16:03;102187.84;;;3.66;100.00
45763;BME280;37512;52.408;13.356;2023-04-09T00:20:05;102181.84;;;3.59;100.00
45763;BME280;37512;52.408;13.356;2023-04-09T00:24:08;102186.81;;;3.46;100.00
45763;BME280;37512;52.408;13.356;2023-04-09T00:28:09;102187.41;;;3.33;100.00
45763;BME280;37512;52.408;13.356;2023-04-09T00:32:11;102185.22;;;3.40;100.00
45763;BME280;37512;52.408;13.356;2023-04-09T00:36:12;102182.53;;;3.14;100.00
45763;BME280;37512;52.408;13.356;2023-04-09T00:40:14;102180.91;;;3.13;100.00
45763;BME280;37512;52.408;13.356;2023-04-09T00:44:16;102180.84;;;3.24;100.00
45763;BME280;37512;52.408;13.356;2023-04-09T00:48:17;102183.91;;;3.22;100.00
45763;BME280;37512;52.408;13.356;2023-04-09T00:52:19;102181.78;;;2.78;100.00
45763;BME280;37512;52.408;13.356;2023-04-09T00:56:22;102181.50;;;2.85;100.00
45763;BME280;37512;52.408;13.356;2023-04-09T01:00:23;102175.19;;;2.89;100.00
45763;BME280;37512;52.408;13.356;2023-04-09T01:04:25;102176.03;;;2.90;100.00
45763;BME280;37512;52.408;13.356;2023-04-09T01:08:31;102179.00;;;3.09;100.00
45763;BME280;37512;52.408;13.356;2023-04-09T01:17:03;102181.25;;;2.76;100.00
45763;BME280;37512;52.408;13.356;2023-04-09T01:21:10;102188.09;;;2.73;100.00
45763;BME280;37512;52.408;13.356;2023-04-09T01:25:47;102181.56;;;2.49;100.00
45763;BME280;37512;52.408;13.356;2023-04-09T01:29:51;102176.63;;;2.36;100.00
45763;BME280;37512;52.408;13.356;2023-04-09T01:33:54;102181.81;;;2.37;100.00
45763;BME280;37512;52.408;13.356;2023-04-09T01:37:56;102181.53;;;2.39;100.00
45763;BME280;37512;52.408;13.356;2023-04-09T01:41:58;102182.91;;;2.51;100.00
45763;BME280;37512;52.408;13.356;2023-04-09T01:46:01;102184.84;;;2.51;100.00
45763;BME280;37512;52.408;13.356;2023-04-09T01:50:04;102178.25;;;2.47;100.00
45763;BME280;37512;52.408;13.356;2023-04-09T01:54:06;102178.53;;;2.40;100.00
45763;BME280;37512;52.408;13.356;2023-04-09T01:58:08;102187.59;;;2.56;100.00
45763;BME280;37512;52.408;13.356;2023-04-09T02:02:16;102181.53;;;2.44;100.00
45763;BME280;37512;52.408;13.356;2023-04-09T02:06:31;102188.69;;;2.40;100.00
45763;BME280;37512;52.408;13.356;2023-04-09T02:10:37;102189.75;;;2.23;100.00
45763;BME280;37512;52.408;13.356;2023-04-09T02:14:40;102194.13;;;2.14;100.00
45763;BME280;37512;52.408;13.356;2023-04-09T02:18:41;102197.38;;;1.96;100.00
45763;BME280;37512;52.408;13.356;2023-04-09T02:22:44;102195.19;;;1.98;100.00
45763;BME280;37512;52.408;13.356;2023-04-09T02:26:46;102194.03;;;1.68;100.00
45763;BME280;37512;52.408;13.356;2023-04-09T02:30:47;102198.94;;;1.03;100.00
45763;BME280;37512;52.408;13.356;2023-04-09T02:34:48;102198.66;;;1.62;100.00
45763;BME280;37512;52.408;13.356;2023-04-09T02:38:50;102195.69;;;1.69;100.00
45763;BME280;37512;52.408;13.356;2023-04-09T02:42:52;102194.88;;;1.79;100.00
45763;BME280;37512;52.408;13.356;2023-04-09T02:46:55;102185.53;;;1.64;100.00
45763;BME280;37512;52.408;13.356;2023-04-09T02:50:56;102179.47;;;1.57;100.00
45763;BME280;37512;52.408;13.356;2023-04-09T02:54:57;102186.31;;;1.55;100.00
45763;BME280;37512;52.408;13.356;2023-04-09T02:58:59;102186.53;;;1.38;100.00
45763;BME280;37512;52.408;13.356;2023-04-09T03:03:00;102184.03;;;1.36;100.00
45763;BME280;37512;52.408;13.356;2023-04-09T03:07:02;102175.84;;;1.36;100.00
45763;BME280;37512;52.408;13.356;2023-04-09T03:11:04;102178.00;;;1.34;100.00
45763;BME280;37512;52.408;13.356;2023-04-09T03:15:06;102172.78;;;1.22;100.00
45763;BME280;37512;52.408;13.356;2023-04-09T03:19:07;102176.88;;;1.20;100.00
45763;BME280;37512;52.408;13.356;2023-04-09T03:23:09;102169.03;;;0.91;100.00
45763;BME280;37512;52.408;13.356;2023-04-09T03:27:11;102175.41;;;1.02;100.00
45763;BME280;37512;52.408;13.356;2023-04-09T03:31:12;102170.75;;;1.02;100.00
45763;BME280;37512;52.408;13.356;2023-04-09T03:35:14;102168.34;;;1.16;100.00
45763;BME280;37512;52.408;13.356;2023-04-09T03:39:16;102164.84;;;1.21;100.00
45763;BME280;37512;52.408;13.356;2023-04-09T03:43:17;102161.50;;;1.14;100.00
45763;BME280;37512;52.408;13.356;2023-04-09T03:47:19;102162.41;;;1.30;100.00
45763;BME280;37512;52.408;13.356;2023-04-09T03:51:20;102164.34;;;1.34;100.00
45763;BME280;37512;52.408;13.356;2023-04-09T03:55:22;102164.78;;;1.11;100.00
45763;BME280;37512;52.408;13.356;2023-04-09T03:59:23;102163.16;;;1.15;100.00
45763;BME280;37512;52.408;13.356;2023-04-09T04:03:25;102172.75;;;1.17;100.00
45763;BME280;37512;52.408;13.356;2023-04-09T04:07:27;102181.16;;;1.06;100.00
45763;BME280;37512;52.408;13.356;2023-04-09T04:11:28;102177.84;;;0.98;100.00
45763;BME280;37512;52.408;13.356;2023-04-09T04:15:30;102179.84;;;1.13;100.00
45763;BME280;37512;52.408;13.356;2023-04-09T04:19:32;102177.91;;;1.09;100.00
45763;BME280;37512;52.408;13.356;2023-04-09T04:23:33;102177.84;;;0.98;100.00
45763;BME280;37512;52.408;13.356;2023-04-09T04:27:35;102174.09;;;1.15;100.00
45763;BME280;37512;52.408;13.356;2023-04-09T04:31:36;102174.69;;;1.22;100.00
45763;BME280;37512;52.408;13.356;2023-04-09T04:35:38;102177.16;;;1.23;100.00
45763;BME280;37512;52.408;13.356;2023-04-09T04:39:39;102188.84;;;1.14;100.00
45763;BME280;37512;52.408;13.356;2023-04-09T04:43:41;102191.09;;;1.17;100.00
45763;BME280;37512;52.408;13.356;2023-04-09T04:47:42;102187.47;;;1.11;100.00
45763;BME280;37512;52.408;13.356;2023-04-09T04:51:44;102195.16;;;1.14;100.00
45763;BME280;37512;52.408;13.356;2023-04-09T04:55:45;102201.22;;;1.21;100.00
45763;BME280;37512;52.408;13.356;2023-04-09T04:59:47;102207.25;;;1.23;100.00
45763;BME280;37512;52.408;13.356;2023-04-09T05:03:48;102221.44;;;1.20;100.00
45763;BME280;37512;52.408;13.356;2023-04-09T05:07:50;102219.47;;;1.11;100.00
45763;BME280;37512;52.408;13.356;2023-04-09T05:11:51;102226.41;;;0.49;100.00
45763;BME280;37512;52.408;13.356;2023-04-09T05:15:53;102221.16;;;0.74;100.00
45763;BME280;37512;52.408;13.356;2023-04-09T05:19:54;102232.03;;;1.07;100.00
45763;BME280;37512;52.408;13.356;2023-04-09T05:23:58;102231.56;;;1.20;100.00
45763;BME280;37512;52.408;13.356;2023-04-09T05:27:59;102224.75;;;1.28;100.00
45763;BME280;37512;52.408;13.356;2023-04-09T05:32:01;102229.56;;;1.05;100.00
45763;BME280;37512;52.408;13.356;2023-04-09T05:36:03;102222.41;;;1.46;100.00
45763;BME280;37512;52.408;13.356;2023-04-09T05:40:05;102226.84;;;1.58;100.00
45763;BME280;37512;52.408;13.356;2023-04-09T05:44:07;102227.69;;;1.68;100.00
45763;BME280;37512;52.408;13.356;2023-04-09T05:48:08;102228.47;;;1.59;100.00
45763;BME280;37512;52.408;13.356;2023-04-09T05:52:09;102231.75;;;1.56;100.00
45763;BME280;37512;52.408;13.356;2023-04-09T05:56:14;102223.63;;;1.86;100.00
45763;BME280;37512;52.408;13.356;2023-04-09T06:00:16;102225.84;;;1.90;100.00
45763;BME280;37512;52.408;13.356;2023-04-09T06:04:18;102231.28;;;1.84;100.00
45763;BME280;37512;52.408;13.356;2023-04-09T06:08:20;102235.22;;;2.14;100.00
45763;BME280;37512;52.408;13.356;2023-04-09T06:12:21;102230.03;;;2.48;100.00
45763;BME280;37512;52.408;13.356;2023-04-09T06:16:23;102224.31;;;2.65;100.00
45763;BME280;37512;52.408;13.356;2023-04-09T06:20:24;102224.03;;;2.77;100.00
45763;BME280;37512;52.408;13.356;2023-04-09T06:24:26;102228.66;;;3.02;100.00
45763;BME280;37512;52.408;13.356;2023-04-09T06:28:28;102228.91;;;3.16;100.00
45763;BME280;37512;52.408;13.356;2023-04-09T06:32:29;102218.72;;;3.27;100.00
45763;BME280;37512;52.408;13.356;2023-04-09T06:36:38;102221.13;;;3.44;100.00
45763;BME280;37512;52.408;13.356;2023-04-09T06:40:41;102227.34;;;3.70;100.00
45763;BME280;37512;52.408;13.356;2023-04-09T06:44:42;102232.63;;;3.56;100.00
45763;BME280;37512;52.408;13.356;2023-04-09T06:48:44;102225.03;;;3.97;100.00
45763;BME280;37512;52.408;13.356;2023-04-09T06:52:46;102227.06;;;4.21;100.00
45763;BME280;37512;52.408;13.356;2023-04-09T06:56:48;102232.50;;;4.31;100.00
45763;BME280;37512;52.408;13.356;2023-04-09T07:00:49;102237.84;;;4.52;100.00
45763;BME280;37512;52.408;13.356;2023-04-09T07:04:51;102236.78;;;4.82;100.00
45763;BME280;37512;52.408;13.356;2023-04-09T07:08:53;102230.94;;;4.89;100.00
45763;BME280;37512;52.408;13.356;2023-04-09T07:12:55;102231.13;;;4.97;100.00
45763;BME280;37512;52.408;13.356;2023-04-09T07:16:56;102240.94;;;5.33;100.00
45763;BME280;37512;52.408;13.356;2023-04-09T07:20:58;102250.13;;;5.47;100.00
45763;BME280;37512;52.408;13.356;2023-04-09T07:24:59;102238.00;;;5.72;100.00
45763;BME280;37512;52.408;13.356;2023-04-09T07:29:01;102245.72;;;5.94;100.00
45763;BME280;37512;52.408;13.356;2023-04-09T07:33:04;102245.91;;;6.22;100.00
45763;BME280;37512;52.408;13.356;2023-04-09T07:37:05;102237.16;;;6.34;100.00
45763;BME280;37512;52.408;13.356;2023-04-09T07:41:09;102237.19;;;5.96;100.00
45763;BME280;37512;52.408;13.356;2023-04-09T07:45:11;102240.78;;;6.34;100.00
45763;BME280;37512;52.408;13.356;2023-04-09T07:49:13;102239.19;;;6.47;100.00
45763;BME280;37512;52.408;13.356;2023-04-09T07:53:14;102240.31;;;6.46;100.00
45763;BME280;37512;52.408;13.356;2023-04-09T07:57:16;102245.97;;;6.36;100.00
45763;BME280;37512;52.408;13.356;2023-04-09T08:01:18;102251.06;;;6.61;100.00
45763;BME280;37512;52.408;13.356;2023-04-09T08:05:25;102246.59;;;6.84;100.00
45763;BME280;37512;52.408;13.356;2023-04-09T08:09:26;102243.50;;;6.86;100.00
45763;BME280;37512;52.408;13.356;2023-04-09T08:13:27;102245.03;;;7.39;100.00
45763;BME280;37512;52.408;13.356;2023-04-09T08:17:29;102248.63;;;7.67;100.00
45763;BME280;37512;52.408;13.356;2023-04-09T08:21:31;102254.75;;;7.64;100.00
45763;BME280;37512;52.408;13.356;2023-04-09T08:25:33;102250.47;;;7.71;100.00
45763;BME280;37512;52.408;13.356;2023-04-09T08:29:34;102257.00;;;7.48;100.00
45763;BME280;37512;52.408;13.356;2023-04-09T08:33:36;102256.81;;;8.22;100.00
45763;BME280;37512;52.408;13.356;2023-04-09T08:37:38;102266.25;;;8.07;100.00
45763;BME280;37512;52.408;13.356;2023-04-09T08:41:41;102263.63;;;8.38;100.00
45763;BME280;37512;52.408;13.356;2023-04-09T08:45:46;102272.25;;;8.51;100.00
45763;BME280;37512;52.408;13.356;2023-04-09T08:49:51;102271.41;;;8.50;100.00
45763;BME280;37512;52.408;13.356;2023-04-09T08:54:00;102259.66;;;8.31;100.00
45763;BME280;37512;52.408;13.356;2023-04-09T08:58:05;102257.56;;;8.95;100.00
45763;BME280;37512;52.408;13.356;2023-04-09T09:02:11;102257.78;;;8.99;100.00
45763;BME280;37512;52.408;13.356;2023-04-09T09:06:20;102250.72;;;8.70;100.00
45763;BME280;37512;52.408;13.356;2023-04-09T09:10:36;102243.47;;;9.06;100.00
45763;BME280;37512;52.408;13.356;2023-04-09T09:14:37;102254.28;;;9.56;100.00
45763;BME280;37512;52.408;13.356;2023-04-09T09:18:41;102242.94;;;9.83;100.00
45763;BME280;37512;52.408;13.356;2023-04-09T09:22:50;102249.84;;;10.12;97.74
45763;BME280;37512;52.408;13.356;2023-04-09T09:26:55;102243.81;;;10.19;96.58
45763;BME280;37512;52.408;13.356;2023-04-09T09:31:09;102240.88;;;10.85;93.47
45763;BME280;37512;52.408;13.356;2023-04-09T09:35:11;102237.25;;;10.93;89.60
45763;BME280;37512;52.408;13.356;2023-04-09T09:39:13;102240.44;;;10.48;94.31
45763;BME280;37512;52.408;13.356;2023-04-09T09:43:17;102239.38;;;9.92;93.97
45763;BME280;37512;52.408;13.356;2023-04-09T09:47:20;102227.66;;;10.73;88.26
45763;BME280;37512;52.408;13.356;2023-04-09T09:51:24;102225.56;;;11.56;85.55
45763;BME280;37512;52.408;13.356;2023-04-09T09:55:30;102226.22;;;11.61;86.44
45763;BME280;37512;52.408;13.356;2023-04-09T09:59:36;102218.13;;;11.77;80.83
45763;BME280;37512;52.408;13.356;2023-04-09T10:03:41;102217.91;;;11.14;88.90
45763;BME280;37512;52.408;13.356;2023-04-09T10:07:44;102216.50;;;11.97;82.77
45763;BME280;37512;52.408;13.356;2023-04-09T10:11:47;102208.38;;;12.13;77.93
45763;BME280;37512;52.408;13.356;2023-04-09T10:15:50;102207.56;;;12.33;76.44
45763;BME280;37512;52.408;13.356;2023-04-09T10:20:09;102207.56;;;13.00;74.83
45763;BME280;37512;52.408;13.356;2023-04-09T10:24:12;102213.91;;;13.46;73.25
45763;BME280;37512;52.408;13.356;2023-04-09T10:28:16;102219.13;;;13.35;71.38
45763;BME280;37512;52.408;13.356;2023-04-09T10:32:19;102216.41;;;13.27;73.09
45763;BME280;37512;52.408;13.356;2023-04-09T10:36:29;102219.19;;;13.14;72.52
45763;BME280;37512;52.408;13.356;2023-04-09T10:40:31;102219.97;;;13.48;71.74
45763;BME280;37512;52.408;13.356;2023-04-09T10:44:33;102219.13;;;12.77;72.45
45763;BME280;37512;52.408;13.356;2023-04-09T10:48:38;102216.94;;;13.41;73.48
45763;BME280;37512;52.408;13.356;2023-04-09T10:52:40;102219.84;;;14.62;66.43
45763;BME280;37512;52.408;13.356;2023-04-09T11:01:22;102218.66;;;14.92;63.53
45763;BME280;37512;52.408;13.356;2023-04-09T11:09:28;102223.22;;;14.15;65.63
45763;BME280;37512;52.408;13.356;2023-04-09T11:13:31;102213.97;;;13.99;64.64
45763;BME280;37512;52.408;13.356;2023-04-09T11:17:35;102210.66;;;14.78;62.79
45763;BME280;37512;52.408;13.356;2023-04-09T11:21:41;102212.19;;;15.19;58.03
45763;BME280;37512;52.408;13.356;2023-04-09T11:25:50;102203.03;;;15.54;59.78
45763;BME280;37512;52.408;13.356;2023-04-09T11:29:55;102212.34;;;15.42;59.25
45763;BME280;37512;52.408;13.356;2023-04-09T11:33:56;102196.44;;;14.27;60.88
45763;BME280;37512;52.408;13.356;2023-04-09T11:37:58;102194.59;;;15.03;58.97
45763;BME280;37512;52.408;13.356;2023-04-09T11:41:59;102194.38;;;14.52;59.72
45763;BME280;37512;52.408;13.356;2023-04-09T11:46:02;102190.06;;;14.54;61.04
45763;BME280;37512;52.408;13.356;2023-04-09T11:50:06;102184.66;;;14.05;58.53
45763;BME280;37512;52.408;13.356;2023-04-09T11:54:08;102171.53;;;14.62;60.26
45763;BME280;37512;52.408;13.356;2023-04-09T11:58:11;102179.03;;;14.46;61.42
45763;BME280;37512;52.408;13.356;2023-04-09T12:02:16;102187.31;;;15.65;54.68
45763;BME280;37512;52.408;13.356;2023-04-09T12:06:20;102182.53;;;15.66;53.89
45763;BME280;37512;52.408;13.356;2023-04-09T12:10:30;102181.72;;;15.65;53.61
45763;BME280;37512;52.408;13.356;2023-04-09T12:14:33;102193.63;;;16.76;53.22
45763;BME280;37512;52.408;13.356;2023-04-09T12:18:35;102178.97;;;17.05;49.47
45763;BME280;37512;52.408;13.356;2023-04-09T12:22:38;102188.06;;;17.22;49.01
45763;BME280;37512;52.408;13.356;2023-04-09T12:26:42;102188.31;;;15.73;49.41
45763;BME280;37512;52.408;13.356;2023-04-09T12:30:43;102192.78;;;16.33;49.01
45763;BME280;37512;52.408;13.356;2023-04-09T12:34:45;102185.59;;;15.77;48.05
45763;BME280;37512;52.408;13.356;2023-04-09T12:38:47;102182.56;;;15.34;48.27
45763;BME280;37512;52.408;13.356;2023-04-09T12:42:49;102179.78;;;15.18;49.08
45763;BME280;37512;52.408;13.356;2023-04-09T12:46:50;102182.81;;;16.74;46.14
45763;BME280;37512;52.408;13.356;2023-04-09T12:50:52;102176.78;;;17.18;45.74
45763;BME280;37512;52.408;13.356;2023-04-09T12:54:53;102173.97;;;18.28;43.59
45763;BME280;37512;52.408;13.356;2023-04-09T12:58:55;102170.44;;;18.35;43.74
45763;BME280;37512;52.408;13.356;2023-04-09T13:02:57;102173.91;;;18.58;41.38
45763;BME280;37512;52.408;13.356;2023-04-09T13:06:58;102171.28;;;18.05;41.26
45763;BME280;37512;52.408;13.356;2023-04-09T13:11:00;102171.78;;;18.82;41.09
45763;BME280;37512;52.408;13.356;2023-04-09T13:15:01;102165.44;;;18.92;40.15
45763;BME280;37512;52.408;13.356;2023-04-09T13:19:05;102162.94;;;18.84;40.25
45763;BME280;37512;52.408;13.356;2023-04-09T13:23:07;102166.78;;;19.61;36.82
45763;BME280;37512;52.408;13.356;2023-04-09T13:27:09;102154.22;;;19.48;38.64
45763;BME280;37512;52.408;13.356;2023-04-09T13:31:11;102153.91;;;19.60;37.22
45763;BME280;37512;52.408;13.356;2023-04-09T13:35:13;102147.25;;;19.82;37.98
45763;BME280;37512;52.408;13.356;2023-04-09T13:39:14;102144.13;;;19.43;36.65
45763;BME280;37512;52.408;13.356;2023-04-09T13:43:16;102137.63;;;19.94;36.90
45763;BME280;37512;52.408;13.356;2023-04-09T13:47:18;102147.44;;;18.63;36.88
45763;BME280;37512;52.408;13.356;2023-04-09T13:51:22;102132.06;;;19.42;37.08
45763;BME280;37512;52.408;13.356;2023-04-09T13:55:24;102131.59;;;18.81;38.10
45763;BME280;37512;52.408;13.356;2023-04-09T13:59:26;102131.59;;;19.99;36.81
45763;BME280;37512;52.408;13.356;2023-04-09T14:03:27;102120.78;;;20.09;36.37
45763;BME280;37512;52.408;13.356;2023-04-09T14:07:29;102120.34;;;18.44;37.28
45763;BME280;37512;52.408;13.356;2023-04-09T14:11:31;102113.38;;;18.31;38.80
45763;BME280;37512;52.408;13.356;2023-04-09T14:15:32;102108.97;;;19.74;36.86
45763;BME280;37512;52.408;13.356;2023-04-09T14:19:35;102115.72;;;20.64;35.20
45763;BME280;37512;52.408;13.356;2023-04-09T14:23:38;102102.75;;;18.92;37.21
45763;BME280;37512;52.408;13.356;2023-04-09T14:27:39;102100.09;;;19.72;35.86
45763;BME280;37512;52.408;13.356;2023-04-09T14:31:41;102093.06;;;20.29;34.34
45763;BME280;37512;52.408;13.356;2023-04-09T14:35:43;102089.47;;;20.53;34.64
45763;BME280;37512;52.408;13.356;2023-04-09T14:39:44;102082.56;;;20.15;34.19
45763;BME280;37512;52.408;13.356;2023-04-09T14:43:46;102085.09;;;19.54;33.40
45763;BME280;37512;52.408;13.356;2023-04-09T14:47:47;102086.13;;;18.35;35.25
45763;BME280;37512;52.408;13.356;2023-04-09T14:51:49;102077.75;;;19.38;34.42
45763;BME280;37512;52.408;13.356;2023-04-09T14:55:50;102077.31;;;20.13;33.67
45763;BME280;37512;52.408;13.356;2023-04-09T14:59:52;102079.66;;;18.31;36.80
45763;BME280;37512;52.408;13.356;2023-04-09T15:03:53;102079.06;;;19.59;35.14
45763;BME280;37512;52.408;13.356;2023-04-09T15:07:56;102067.34;;;18.87;35.98
45763;BME280;37512;52.408;13.356;2023-04-09T15:11:57;102079.41;;;18.47;36.68
45763;BME280;37512;52.408;13.356;2023-04-09T15:15:58;102066.81;;;19.26;35.89
45763;BME280;37512;52.408;13.356;2023-04-09T15:20:00;102076.28;;;18.14;36.64
45763;BME280;37512;52.408;13.356;2023-04-09T15:24:02;102069.81;;;18.10;35.28
45763;BME280;37512;52.408;13.356;2023-04-09T15:28:04;102070.19;;;18.46;35.29
45763;BME280;37512;52.408;13.356;2023-04-09T15:32:06;102073.72;;;17.72;36.65
45763;BME280;37512;52.408;13.356;2023-04-09T15:36:08;102071.50;;;17.54;37.26
45763;BME280;37512;52.408;13.356;2023-04-09T15:40:10;102067.91;;;17.27;39.14
45763;BME280;37512;52.408;13.356;2023-04-09T15:44:11;102072.38;;;17.89;37.35
45763;BME280;37512;52.408;13.356;2023-04-09T15:48:13;102063.56;;;17.90;36.64
45763;BME280;37512;52.408;13.356;2023-04-09T15:52:14;102063.75;;;17.74;38.22
45763;BME280;37512;52.408;13.356;2023-04-09T15:56:16;102071.91;;;17.26;38.26
45763;BME280;37512;52.408;13.356;2023-04-09T16:00:17;102066.41;;;17.33;39.24
45763;BME280;37512;52.408;13.356;2023-04-09T16:04:19;102064.34;;;17.30;38.48
45763;BME280;37512;52.408;13.356;2023-04-09T16:08:20;102063.19;;;15.74;42.03
45763;BME280;37512;52.408;13.356;2023-04-09T16:12:22;102062.63;;;16.96;44.90
45763;BME280;37512;52.408;13.356;2023-04-09T16:16:25;102069.16;;;17.60;45.71
45763;BME280;37512;52.408;13.356;2023-04-09T16:20:26;102069.59;;;17.92;46.97
45763;BME280;37512;52.408;13.356;2023-04-09T16:24:29;102063.91;;;17.85;47.60
45763;BME280;37512;52.408;13.356;2023-04-09T16:28:31;102071.53;;;17.58;48.11
45763;BME280;37512;52.408;13.356;2023-04-09T16:32:33;102071.41;;;17.47;48.92
45763;BME280;37512;52.408;13.356;2023-04-09T16:36:34;102071.72;;;17.42;49.61
45763;BME280;37512;52.408;13.356;2023-04-09T16:40:39;102076.09;;;16.63;52.73
45763;BME280;37512;52.408;13.356;2023-04-09T16:44:40;102065.72;;;17.13;51.03
45763;BME280;37512;52.408;13.356;2023-04-09T16:48:42;102067.72;;;16.90;51.01
45763;BME280;37512;52.408;13.356;2023-04-09T16:52:43;102065.69;;;17.40;50.05
45763;BME280;37512;52.408;13.356;2023-04-09T16:56:45;102068.38;;;17.60;49.59
45763;BME280;37512;52.408;13.356;2023-04-09T17:00:48;102069.84;;;16.97;50.96
45763;BME280;37512;52.408;13.356;2023-04-09T17:04:52;102066.44;;;16.61;51.47
45763;BME280;37512;52.408;13.356;2023-04-09T17:08:54;102065.16;;;16.35;53.12
45763;BME280;37512;52.408;13.356;2023-04-09T17:12:55;102069.63;;;16.17;53.07
45763;BME280;37512;52.408;13.356;2023-04-09T17:16:57;102079.38;;;15.48;55.41
45763;BME280;37512;52.408;13.356;2023-04-09T17:20:58;102076.84;;;15.98;53.44
45763;BME280;37512;52.408;13.356;2023-04-09T17:25:00;102079.75;;;15.47;55.21
45763;BME280;37512;52.408;13.356;2023-04-09T17:29:02;102079.13;;;15.02;56.13
45763;BME280;37512;52.408;13.356;2023-04-09T17:33:03;102088.72;;;14.26;59.01
45763;BME280;37512;52.408;13.356;2023-04-09T17:37:05;102089.78;;;13.93;62.19
45763;BME280;37512;52.408;13.356;2023-04-09T17:41:06;102091.41;;;13.94;61.85
45763;BME280;37512;52.408;13.356;2023-04-09T17:45:08;102087.22;;;13.59;63.93
45763;BME280;37512;52.408;13.356;2023-04-09T17:49:10;102078.56;;;13.36;64.15
45763;BME280;37512;52.408;13.356;2023-04-09T17:53:12;102084.13;;;12.87;66.69
45763;BME280;37512;52.408;13.356;2023-04-09T17:57:13;102082.00;;;12.72;69.33
45763;BME280;37512;52.408;13.356;2023-04-09T18:01:15;102087.34;;;12.77;69.77
45763;BME280;37512;52.408;13.356;2023-04-09T18:05:17;102094.41;;;12.62;70.20
45763;BME280;37512;52.408;13.356;2023-04-09T18:09:18;102089.38;;;11.98;74.64
45763;BME280;37512;52.408;13.356;2023-04-09T18:13:21;102090.34;;;12.14;77.51
45763;BME280;37512;52.408;13.356;2023-04-09T18:17:23;102093.34;;;12.09;80.15
45763;BME280;37512;52.408;13.356;2023-04-09T18:21:26;102090.28;;;11.81;79.60
45763;BME280;37512;52.408;13.356;2023-04-09T18:25:28;102081.44;;;11.79;80.44
45763;BME280;37512;52.408;13.356;2023-04-09T18:29:30;102082.59;;;11.36;85.23
45763;BME280;37512;52.408;13.356;2023-04-09T18:33:32;102089.75;;;11.16;88.80
45763;BME280;37512;52.408;13.356;2023-04-09T18:37:34;102092.03;;;11.43;87.97
45763;BME280;37512;52.408;13.356;2023-04-09T18:41:35;102103.94;;;11.23;88.45
45763;BME280;37512;52.408;13.356;2023-04-09T18:45:37;102114.06;;;11.27;88.27
45763;BME280;37512;52.408;13.356;2023-04-09T18:49:42;102111.59;;;11.26;88.68
45763;BME280;37512;52.408;13.356;2023-04-09T18:53:43;102114.78;;;11.16;89.64
45763;BME280;37512;52.408;13.356;2023-04-09T18:57:45;102116.31;;;11.04;91.81
45763;BME280;37512;52.408;13.356;2023-04-09T19:01:47;102113.91;;;10.85;93.13
45763;BME280;37512;52.408;13.356;2023-04-09T19:05:50;102116.59;;;10.64;95.36
45763;BME280;37512;52.408;13.356;2023-04-09T19:09:51;102108.91;;;10.70;95.26
45763;BME280;37512;52.408;13.356;2023-04-09T19:13:53;102110.44;;;10.50;96.48
45763;BME280;37512;52.408;13.356;2023-04-09T19:17:55;102120.72;;;10.58;96.17
45763;BME280;37512;52.408;13.356;2023-04-09T19:21:57;102115.19;;;10.50;96.80
45763;BME280;37512;52.408;13.356;2023-04-09T19:25:59;102119.28;;;10.35;98.37
45763;BME280;37512;52.408;13.356;2023-04-09T19:30:01;102116.34;;;10.22;100.00
45763;BME280;37512;52.408;13.356;2023-04-09T19:34:04;102113.22;;;10.24;100.00
45763;BME280;37512;52.408;13.356;2023-04-09T19:38:06;102111.63;;;10.23;100.00
45763;BME280;37512;52.408;13.356;2023-04-09T19:42:08;102118.63;;;10.12;100.00
45763;BME280;37512;52.408;13.356;2023-04-09T19:46:10;102110.50;;;9.98;100.00
45763;BME280;37512;52.408;13.356;2023-04-09T19:50:12;102120.28;;;9.78;100.00
45763;BME280;37512;52.408;13.356;2023-04-09T19:54:13;102120.22;;;9.34;100.00
45763;BME280;37512;52.408;13.356;2023-04-09T19:58:16;102112.44;;;9.54;100.00
45763;BME280;37512;52.408;13.356;2023-04-09T20:02:18;102120.06;;;9.48;100.00
45763;BME280;37512;52.408;13.356;2023-04-09T20:06:20;102121.78;;;9.09;100.00
45763;BME280;37512;52.408;13.356;2023-04-09T20:10:22;102126.88;;;8.85;100.00
45763;BME280;37512;52.408;13.356;2023-04-09T20:14:23;102128.34;;;9.22;100.00
45763;BME280;37512;52.408;13.356;2023-04-09T20:18:25;102136.50;;;9.27;100.00
45763;BME280;37512;52.408;13.356;2023-04-09T20:22:26;102134.97;;;9.04;100.00
45763;BME280;37512;52.408;13.356;2023-04-09T20:26:29;102141.00;;;9.06;100.00
45763;BME280;37512;52.408;13.356;2023-04-09T20:30:31;102135.31;;;9.11;100.00
45763;BME280;37512;52.408;13.356;2023-04-09T20:34:32;102137.03;;;8.98;100.00
45763;BME280;37512;52.408;13.356;2023-04-09T20:38:34;102133.31;;;9.03;100.00
45763;BME280;37512;52.408;13.356;2023-04-09T20:42:37;102131.34;;;9.03;100.00
45763;BME280;37512;52.408;13.356;2023-04-09T20:46:38;102132.28;;;8.90;100.00
45763;BME280;37512;52.408;13.356;2023-04-09T20:50:40;102127.25;;;8.38;100.00
45763;BME280;37512;52.408;13.356;2023-04-09T20:54:42;102129.28;;;8.77;100.00
45763;BME280;37512;52.408;13.356;2023-04-09T20:58:43;102125.06;;;8.71;100.00
45763;BME280;37512;52.408;13.356;2023-04-09T21:02:45;102118.00;;;8.96;100.00
45763;BME280;37512;52.408;13.356;2023-04-09T21:06:47;102111.97;;;9.03;100.00